createdAt,value
2023-04-30T00:00:51.762Z,10
2023-04-30T00:01:58.729Z,9
2023-04-30T00:03:05.717Z,10
2023-04-30T00:04:12.558Z,10
2023-04-30T00:05:19.375Z,9
2023-04-30T00:06:28.313Z,9
2023-04-30T00:07:33.167Z,10
2023-04-30T00:08:40.059Z,9
2023-04-30T00:09:46.914Z,9
2023-04-30T00:10:53.803Z,9
2023-04-30T00:12:00.606Z,10
2023-04-30T00:13:07.495Z,9
2023-04-30T00:14:14.313Z,9
2023-04-30T00:15:21.252Z,10
2023-04-30T00:16:28.196Z,10
2023-04-30T00:17:34.975Z,8
2023-04-30T00:18:41.836Z,10
2023-04-30T00:19:48.669Z,10
2023-04-30T00:20:55.568Z,9
2023-04-30T00:22:02.406Z,9
2023-04-30T00:23:09.342Z,8
2023-04-30T00:24:16.093Z,9
2023-04-30T00:25:22.910Z,9
2023-04-30T00:26:29.762Z,9
2023-04-30T00:27:36.695Z,10
2023-04-30T00:28:43.351Z,10
2023-04-30T00:29:50.210Z,10
2023-04-30T00:30:57.078Z,10
2023-04-30T00:32:04.116Z,10
2023-04-30T00:33:10.935Z,10
2023-04-30T00:34:17.858Z,9
2023-04-30T00:35:24.639Z,9
2023-04-30T00:36:31.526Z,10
2023-04-30T00:37:38.381Z,10
2023-04-30T00:38:45.480Z,10
2023-04-30T00:39:52.136Z,10
2023-04-30T00:40:58.858Z,10
2023-04-30T00:42:05.712Z,10
2023-04-30T00:43:12.672Z,11
2023-04-30T00:44:19.482Z,11
2023-04-30T00:45:26.374Z,12
2023-04-30T00:46:33.224Z,11
2023-04-30T00:47:40.100Z,12
2023-04-30T00:48:47.131Z,11
2023-04-30T00:49:54.300Z,11
2023-04-30T00:51:00.895Z,11
2023-04-30T00:52:07.718Z,11
2023-04-30T00:53:14.508Z,13
2023-04-30T00:54:21.430Z,12
2023-04-30T00:55:28.193Z,12
2023-04-30T00:56:35.035Z,12
2023-04-30T00:57:41.875Z,13
2023-04-30T00:58:48.727Z,13
2023-04-30T00:59:55.820Z,12
2023-04-30T01:01:02.616Z,12
2023-04-30T01:02:09.465Z,11
2023-04-30T01:03:16.322Z,11
2023-04-30T01:04:22.998Z,11
2023-04-30T01:05:29.849Z,11
2023-04-30T01:06:36.723Z,11
2023-04-30T01:07:43.441Z,12
2023-04-30T01:08:50.160Z,12
2023-04-30T01:09:57.011Z,12
2023-04-30T01:11:03.806Z,11
2023-04-30T01:12:21.032Z,12
2023-04-30T01:13:39.064Z,12
2023-04-30T01:14:53.815Z,13
2023-04-30T01:16:05.983Z,12
2023-04-30T01:17:15.302Z,12
2023-04-30T01:18:30.383Z,13
2023-04-30T01:19:42.350Z,12
2023-04-30T01:20:49.122Z,11
2023-04-30T01:21:55.909Z,11
2023-04-30T01:23:02.926Z,11
2023-04-30T01:24:20.115Z,10
2023-04-30T01:25:32.124Z,10
2023-04-30T01:26:44.130Z,11
2023-04-30T01:27:56.152Z,11
2023-04-30T01:29:08.199Z,11
2023-04-30T01:30:15.056Z,10
2023-04-30T01:31:21.969Z,11
2023-04-30T01:32:28.774Z,10
2023-04-30T01:33:35.531Z,10
2023-04-30T01:34:42.421Z,10
2023-04-30T01:35:49.420Z,10
2023-04-30T01:37:01.365Z,9
2023-04-30T01:38:18.481Z,10
2023-04-30T01:39:28.471Z,9
2023-04-30T01:40:43.347Z,8
2023-04-30T01:41:59.613Z,9
2023-04-30T01:43:17.702Z,8
2023-04-30T01:44:35.423Z,9
2023-04-30T01:45:52.577Z,8
2023-04-30T01:47:04.624Z,8
2023-04-30T01:48:11.411Z,8
2023-04-30T01:49:25.942Z,9
2023-04-30T01:50:43.221Z,8
2023-04-30T01:51:53.015Z,9
2023-04-30T01:53:07.703Z,8
2023-04-30T01:54:14.546Z,7
2023-04-30T01:55:26.507Z,7
2023-04-30T01:56:33.325Z,7
2023-04-30T01:57:40.320Z,6
2023-04-30T01:58:47.101Z,6
2023-04-30T01:59:54.142Z,6
2023-04-30T02:01:00.642Z,5
2023-04-30T02:02:07.393Z,5
2023-04-30T02:03:14.437Z,5
2023-04-30T02:04:21.072Z,5
2023-04-30T02:05:27.824Z,5
2023-04-30T02:06:34.720Z,5
2023-04-30T02:07:41.613Z,4
2023-04-30T02:08:48.510Z,4
2023-04-30T02:09:55.583Z,4
2023-04-30T02:11:02.109Z,4
2023-04-30T02:12:08.933Z,4
2023-04-30T02:13:15.673Z,4
2023-04-30T02:14:22.510Z,3
2023-04-30T02:15:29.275Z,3
2023-04-30T02:16:36.013Z,3
2023-04-30T02:17:42.831Z,3
2023-04-30T02:18:49.609Z,3
2023-04-30T02:19:56.497Z,4
2023-04-30T02:21:03.229Z,4
2023-04-30T02:22:10.034Z,4
2023-04-30T02:23:16.816Z,3
2023-04-30T02:24:23.767Z,4
2023-04-30T02:25:30.660Z,4
2023-04-30T02:26:37.477Z,4
2023-04-30T02:27:44.322Z,4
2023-04-30T02:28:51.017Z,4
2023-04-30T02:29:57.813Z,5
2023-04-30T02:31:04.734Z,4
2023-04-30T02:32:11.598Z,5
2023-04-30T02:33:18.382Z,5
2023-04-30T02:34:25.285Z,5
2023-04-30T02:35:32.074Z,5
2023-04-30T02:36:38.871Z,5
2023-04-30T02:37:45.661Z,7
2023-04-30T02:38:52.419Z,7
2023-04-30T02:39:59.212Z,6
2023-04-30T02:41:06.122Z,6
2023-04-30T02:42:13.139Z,6
2023-04-30T02:43:19.946Z,7
2023-04-30T02:44:26.715Z,6
2023-04-30T02:45:33.561Z,6
2023-04-30T02:46:40.428Z,7
2023-04-30T02:47:47.308Z,6
2023-04-30T02:48:54.176Z,6
2023-04-30T02:50:01.170Z,6
2023-04-30T02:51:08.123Z,6
2023-04-30T02:52:14.897Z,7
2023-04-30T02:53:21.763Z,7
2023-04-30T02:54:28.720Z,7
2023-04-30T02:55:35.562Z,6
2023-04-30T02:56:42.395Z,6
2023-04-30T02:57:49.305Z,6
2023-04-30T02:58:56.229Z,7
2023-04-30T03:00:03.241Z,6
2023-04-30T03:01:10.772Z,7
2023-04-30T03:02:17.613Z,6
2023-04-30T03:03:24.458Z,6
2023-04-30T03:04:31.196Z,6
2023-04-30T03:05:37.944Z,6
2023-04-30T03:06:44.843Z,7
2023-04-30T03:07:51.522Z,6
2023-04-30T03:08:58.332Z,6
2023-04-30T03:10:05.225Z,6
2023-04-30T03:11:12.356Z,6
2023-04-30T03:12:19.172Z,7
2023-04-30T03:13:26.058Z,7
2023-04-30T03:14:32.893Z,6
2023-04-30T03:15:39.714Z,7
2023-04-30T03:16:46.581Z,7
2023-04-30T03:17:53.510Z,6
2023-04-30T03:19:00.322Z,7
2023-04-30T03:20:07.141Z,7
2023-04-30T03:21:14.226Z,7
2023-04-30T03:22:21.255Z,8
2023-04-30T03:23:28.152Z,6
2023-04-30T03:24:34.825Z,6
2023-04-30T03:25:41.584Z,6
2023-04-30T03:26:48.409Z,7
2023-04-30T03:27:55.210Z,7
2023-04-30T03:29:02.169Z,7
2023-04-30T03:30:09.011Z,6
2023-04-30T03:31:15.880Z,6
2023-04-30T03:32:22.714Z,7
2023-04-30T03:33:29.631Z,7
2023-04-30T03:34:36.659Z,7
2023-04-30T03:35:43.479Z,7
2023-04-30T03:36:50.298Z,6
2023-04-30T03:37:57.136Z,7
2023-04-30T03:39:03.940Z,7
2023-04-30T03:40:10.848Z,6
2023-04-30T03:41:17.605Z,6
2023-04-30T03:42:24.387Z,7
2023-04-30T03:43:31.150Z,7
2023-04-30T03:44:37.918Z,7
2023-04-30T03:45:45.098Z,7
2023-04-30T03:46:51.822Z,7
2023-04-30T03:47:58.639Z,7
2023-04-30T03:49:05.404Z,7
2023-04-30T03:50:12.253Z,7
2023-04-30T03:51:19.101Z,7
2023-04-30T03:52:25.910Z,7
2023-04-30T03:53:32.714Z,6
2023-04-30T03:54:39.556Z,7
2023-04-30T03:55:46.313Z,6
2023-04-30T03:56:53.367Z,6
2023-04-30T03:58:00.140Z,6
2023-04-30T03:59:06.960Z,6
2023-04-30T04:00:13.734Z,6
2023-04-30T04:01:20.560Z,7
2023-04-30T04:02:27.606Z,7
2023-04-30T04:03:34.302Z,6
2023-04-30T04:04:41.290Z,6
2023-04-30T04:05:48.171Z,7
2023-04-30T04:06:54.972Z,7
2023-04-30T04:08:01.815Z,7
2023-04-30T04:09:08.841Z,7
2023-04-30T04:10:15.698Z,7
2023-04-30T04:11:22.484Z,6
2023-04-30T04:12:29.248Z,6
2023-04-30T04:13:36.201Z,6
2023-04-30T04:14:43.120Z,7
2023-04-30T04:15:49.967Z,7
2023-04-30T04:16:56.665Z,7
2023-04-30T04:18:03.533Z,6
2023-04-30T04:19:10.327Z,7
2023-04-30T04:20:17.257Z,7
2023-04-30T04:21:24.047Z,6
2023-04-30T04:22:30.878Z,6
2023-04-30T04:23:37.640Z,7
2023-04-30T04:24:44.485Z,7
2023-04-30T04:25:51.361Z,7
2023-04-30T04:26:58.224Z,7
2023-04-30T04:28:05.072Z,7
2023-04-30T04:29:11.844Z,7
2023-04-30T04:30:18.702Z,7
2023-04-30T04:31:25.646Z,7
2023-04-30T04:32:32.532Z,7
2023-04-30T04:33:39.301Z,7
2023-04-30T04:34:46.059Z,8
2023-04-30T04:35:52.857Z,8
2023-04-30T04:36:59.804Z,7
2023-04-30T04:38:06.752Z,7
2023-04-30T04:39:13.545Z,7
2023-04-30T04:40:20.416Z,7
2023-04-30T04:41:27.196Z,6
2023-04-30T04:42:34.051Z,7
2023-04-30T04:43:40.932Z,8
2023-04-30T04:44:47.756Z,8
2023-04-30T04:45:54.609Z,7
2023-04-30T04:47:01.375Z,7
2023-04-30T04:48:08.268Z,7
2023-04-30T04:49:15.154Z,7
2023-04-30T04:50:22.011Z,7
2023-04-30T04:51:28.773Z,8
2023-04-30T04:52:35.522Z,7
2023-04-30T04:53:42.308Z,7
2023-04-30T04:54:49.309Z,7
2023-04-30T04:55:56.163Z,7
2023-04-30T04:57:03.076Z,7
2023-04-30T04:58:09.826Z,8
2023-04-30T04:59:16.649Z,7
2023-04-30T05:00:23.566Z,8
2023-04-30T05:01:31.293Z,7
2023-04-30T05:02:38.096Z,8
2023-04-30T05:03:45.074Z,8
2023-04-30T05:04:51.741Z,7
2023-04-30T05:05:58.726Z,8
2023-04-30T05:07:05.630Z,8
2023-04-30T05:08:12.397Z,8
2023-04-30T05:09:19.177Z,7
2023-04-30T05:10:26.026Z,7
2023-04-30T05:11:33.043Z,7
2023-04-30T05:12:39.946Z,7
2023-04-30T05:13:46.814Z,7
2023-04-30T05:14:53.651Z,7
2023-04-30T05:16:00.535Z,7
2023-04-30T05:17:07.494Z,7
2023-04-30T05:18:14.506Z,7
2023-04-30T05:19:21.384Z,7
2023-04-30T05:20:28.191Z,7
2023-04-30T05:21:35.209Z,7
2023-04-30T05:22:42.014Z,8
2023-04-30T05:23:49.095Z,8
2023-04-30T05:24:55.952Z,7
2023-04-30T05:26:02.814Z,8
2023-04-30T05:27:09.578Z,7
2023-04-30T05:28:16.346Z,7
2023-04-30T05:29:23.186Z,8
2023-04-30T05:30:30.033Z,7
2023-04-30T05:31:36.963Z,7
2023-04-30T05:32:44.355Z,7
2023-04-30T05:33:51.158Z,7
2023-04-30T05:34:58.031Z,7
2023-04-30T05:36:05.057Z,6
2023-04-30T05:37:11.873Z,6
2023-04-30T05:38:18.679Z,7
2023-04-30T05:39:25.516Z,7
2023-04-30T05:40:32.352Z,7
2023-04-30T05:41:39.214Z,7
2023-04-30T05:42:45.993Z,7
2023-04-30T05:43:52.791Z,7
2023-04-30T05:44:59.627Z,8
2023-04-30T05:46:06.778Z,8
2023-04-30T05:47:13.290Z,7
2023-04-30T05:48:20.125Z,7
2023-04-30T05:49:26.942Z,7
2023-04-30T05:50:33.766Z,7
2023-04-30T05:51:40.541Z,7
2023-04-30T05:52:47.469Z,7
2023-04-30T05:53:54.256Z,7
2023-04-30T05:55:01.161Z,7
2023-04-30T05:56:08.249Z,7
2023-04-30T05:57:15.211Z,7
2023-04-30T05:58:22.267Z,6
2023-04-30T05:59:29.296Z,6
2023-04-30T06:00:36.162Z,7
2023-04-30T06:01:42.960Z,6
2023-04-30T06:02:49.786Z,7
2023-04-30T06:03:56.621Z,7
2023-04-30T06:05:03.627Z,8
2023-04-30T06:06:13.332Z,7
2023-04-30T06:07:20.050Z,7
2023-04-30T06:08:26.807Z,7
2023-04-30T06:09:33.692Z,7
2023-04-30T06:10:40.568Z,7
2023-04-30T06:11:47.413Z,7
2023-04-30T06:12:54.206Z,7
2023-04-30T06:14:01.078Z,7
2023-04-30T06:15:07.890Z,6
2023-04-30T06:16:14.759Z,7
2023-04-30T06:17:21.874Z,7
2023-04-30T06:18:28.705Z,7
2023-04-30T06:19:35.565Z,8
2023-04-30T06:20:42.474Z,7
2023-04-30T06:21:49.365Z,7
2023-04-30T06:22:56.270Z,7
2023-04-30T06:24:03.336Z,7
2023-04-30T06:25:10.197Z,6
2023-04-30T06:26:17.141Z,6
2023-04-30T06:27:24.436Z,6
2023-04-30T06:28:31.358Z,6
2023-04-30T06:29:38.425Z,6
2023-04-30T06:30:45.176Z,6
2023-04-30T06:31:52.042Z,6
2023-04-30T06:32:58.938Z,6
2023-04-30T06:34:05.740Z,6
2023-04-30T06:35:12.732Z,6
2023-04-30T06:36:19.473Z,6
2023-04-30T06:37:26.466Z,6
2023-04-30T06:38:33.149Z,7
2023-04-30T06:39:40.131Z,6
2023-04-30T06:40:47.257Z,6
2023-04-30T06:41:54.045Z,6
2023-04-30T06:43:00.916Z,7
2023-04-30T06:44:07.705Z,6
2023-04-30T06:45:14.690Z,6
2023-04-30T06:46:21.631Z,6
2023-04-30T06:47:28.443Z,6
2023-04-30T06:48:38.009Z,6
2023-04-30T06:49:44.813Z,6
2023-04-30T06:50:51.709Z,5
2023-04-30T06:51:59.440Z,5
2023-04-30T06:53:06.353Z,6
2023-04-30T06:54:16.350Z,5
2023-04-30T06:55:23.266Z,6
2023-04-30T06:56:30.062Z,7
2023-04-30T06:57:36.982Z,6
2023-04-30T06:58:43.801Z,6
2023-04-30T06:59:50.738Z,6
2023-04-30T07:00:57.629Z,6
2023-04-30T07:02:04.498Z,6
2023-04-30T07:03:11.490Z,6
2023-04-30T07:04:18.252Z,6
2023-04-30T07:05:25.206Z,6
2023-04-30T07:06:32.030Z,6
2023-04-30T07:07:38.862Z,6
2023-04-30T07:08:45.622Z,6
2023-04-30T07:09:52.416Z,6
2023-04-30T07:10:59.282Z,5
2023-04-30T07:12:06.082Z,6
2023-04-30T07:13:12.872Z,5
2023-04-30T07:14:19.598Z,5
2023-04-30T07:15:26.384Z,6
2023-04-30T07:16:33.443Z,5
2023-04-30T07:17:40.120Z,5
2023-04-30T07:18:47.148Z,6
2023-04-30T07:19:54.032Z,6
2023-04-30T07:21:00.667Z,6
2023-04-30T07:22:07.505Z,6
2023-04-30T07:23:14.349Z,6
2023-04-30T07:24:21.258Z,6
2023-04-30T07:25:28.027Z,5
2023-04-30T07:26:34.760Z,5
2023-04-30T07:27:41.535Z,5
2023-04-30T07:28:48.445Z,5
2023-04-30T07:29:55.582Z,5
2023-04-30T07:31:02.097Z,6
2023-04-30T07:32:08.867Z,5
2023-04-30T07:33:15.771Z,6
2023-04-30T07:34:22.840Z,5
2023-04-30T07:35:29.598Z,6
2023-04-30T07:36:36.422Z,5
2023-04-30T07:37:43.215Z,5
2023-04-30T07:38:50.825Z,5
2023-04-30T07:39:58.044Z,5
2023-04-30T07:41:04.825Z,5
2023-04-30T07:42:11.585Z,5
2023-04-30T07:43:18.408Z,6
2023-04-30T07:44:25.147Z,6
2023-04-30T07:45:32.065Z,5
2023-04-30T07:46:39.095Z,5
2023-04-30T07:47:45.890Z,5
2023-04-30T07:48:52.658Z,6
2023-04-30T07:49:59.515Z,6
2023-04-30T07:51:06.417Z,5
2023-04-30T07:52:13.264Z,5
2023-04-30T07:53:20.125Z,5
2023-04-30T07:54:26.906Z,6
2023-04-30T07:55:33.651Z,5
2023-04-30T07:56:40.425Z,5
2023-04-30T07:57:47.424Z,5
2023-04-30T07:58:54.190Z,5
2023-04-30T08:00:00.986Z,5
2023-04-30T08:01:08.127Z,5
2023-04-30T08:02:14.928Z,4
2023-04-30T08:03:22.036Z,4
2023-04-30T08:04:28.806Z,6
2023-04-30T08:05:35.592Z,6
2023-04-30T08:06:42.411Z,5
2023-04-30T08:07:49.176Z,6
2023-04-30T08:08:56.062Z,6
2023-04-30T08:10:02.940Z,5
2023-04-30T08:11:10.180Z,5
2023-04-30T08:12:16.967Z,5
2023-04-30T08:13:23.750Z,5
2023-04-30T08:14:30.654Z,5
2023-04-30T08:15:37.558Z,5
2023-04-30T08:16:44.450Z,5
2023-04-30T08:17:51.330Z,6
2023-04-30T08:18:58.073Z,5
2023-04-30T08:20:04.909Z,5
2023-04-30T08:21:12.024Z,5
2023-04-30T08:22:18.870Z,5
2023-04-30T08:23:25.666Z,5
2023-04-30T08:24:32.444Z,5
2023-04-30T08:25:39.572Z,5
2023-04-30T08:26:46.592Z,5
2023-04-30T08:27:53.391Z,5
2023-04-30T08:29:00.232Z,5
2023-04-30T08:30:07.035Z,5
2023-04-30T08:31:14.131Z,5
2023-04-30T08:32:21.213Z,5
2023-04-30T08:33:27.829Z,5
2023-04-30T08:34:34.690Z,5
2023-04-30T08:35:41.491Z,5
2023-04-30T08:36:48.299Z,5
2023-04-30T08:37:55.140Z,5
2023-04-30T08:39:02.006Z,5
2023-04-30T08:40:09.001Z,5
2023-04-30T08:41:15.766Z,5
2023-04-30T08:42:22.562Z,5
2023-04-30T08:43:29.492Z,4
2023-04-30T08:44:36.455Z,5
2023-04-30T08:45:43.337Z,5
2023-04-30T08:46:50.282Z,4
2023-04-30T08:47:57.060Z,5
2023-04-30T08:49:03.988Z,4
2023-04-30T08:50:10.901Z,4
2023-04-30T08:51:17.701Z,4
2023-04-30T08:52:24.443Z,4
2023-04-30T08:53:31.222Z,4
2023-04-30T08:54:38.193Z,4
2023-04-30T08:55:45.000Z,4
2023-04-30T08:56:51.893Z,4
2023-04-30T08:57:58.668Z,4
2023-04-30T08:59:05.562Z,4
2023-04-30T09:00:12.342Z,4
2023-04-30T09:01:19.179Z,4
2023-04-30T09:02:26.053Z,4
2023-04-30T09:03:33.043Z,4
2023-04-30T09:04:39.746Z,4
2023-04-30T09:05:46.525Z,4
2023-04-30T09:06:53.318Z,4
2023-04-30T09:08:03.420Z,4
2023-04-30T09:09:07.032Z,4
2023-04-30T09:10:16.724Z,4
2023-04-30T09:11:23.540Z,4
2023-04-30T09:12:33.020Z,4
2023-04-30T09:13:39.744Z,4
2023-04-30T09:14:46.533Z,3
2023-04-30T09:16:03.785Z,4
2023-04-30T09:17:10.540Z,4
2023-04-30T09:18:17.556Z,3
2023-04-30T09:19:24.104Z,4
2023-04-30T09:20:31.074Z,4
2023-04-30T09:21:37.892Z,4
2023-04-30T09:22:44.696Z,3
2023-04-30T09:23:51.473Z,4
2023-04-30T09:24:58.266Z,3
2023-04-30T09:26:05.130Z,4
2023-04-30T09:27:11.950Z,4
2023-04-30T09:28:18.717Z,4
2023-04-30T09:29:25.599Z,4
2023-04-30T09:30:40.210Z,4
2023-04-30T09:31:47.239Z,4
2023-04-30T09:32:53.950Z,4
2023-04-30T09:34:00.801Z,4
2023-04-30T09:35:07.627Z,4
2023-04-30T09:36:22.545Z,3
2023-04-30T09:37:29.396Z,4
2023-04-30T09:38:38.837Z,4
2023-04-30T09:39:45.696Z,4
2023-04-30T09:40:57.706Z,4
2023-04-30T09:42:04.519Z,4
2023-04-30T09:43:11.331Z,4
2023-04-30T09:44:18.154Z,4
2023-04-30T09:45:33.220Z,4
2023-04-30T09:46:45.172Z,4
2023-04-30T09:47:52.878Z,4
2023-04-30T09:48:58.810Z,4
2023-04-30T09:50:05.681Z,4
2023-04-30T09:51:12.666Z,5
2023-04-30T09:52:19.527Z,4
2023-04-30T09:53:26.481Z,4
2023-04-30T09:54:33.337Z,4
2023-04-30T09:55:40.088Z,3
2023-04-30T09:56:46.857Z,3
2023-04-30T09:57:54.501Z,3
2023-04-30T09:59:01.550Z,3
2023-04-30T10:00:08.353Z,3
2023-04-30T10:01:15.518Z,3
2023-04-30T10:02:22.289Z,4
2023-04-30T10:03:29.138Z,3
2023-04-30T10:04:36.114Z,3
2023-04-30T10:05:42.960Z,3
2023-04-30T10:06:49.901Z,3
2023-04-30T10:07:56.632Z,3
2023-04-30T10:09:03.427Z,4
2023-04-30T10:10:10.306Z,4
2023-04-30T10:11:17.089Z,4
2023-04-30T10:12:23.965Z,4
2023-04-30T10:13:30.770Z,4
2023-04-30T10:14:45.693Z,4
2023-04-30T10:15:55.358Z,4
2023-04-30T10:17:02.315Z,4
2023-04-30T10:18:12.055Z,3
2023-04-30T10:19:23.950Z,3
2023-04-30T10:20:30.743Z,3
2023-04-30T10:21:37.578Z,3
2023-04-30T10:22:44.357Z,3
2023-04-30T10:23:51.304Z,3
2023-04-30T10:24:58.225Z,3
2023-04-30T10:26:05.033Z,3
2023-04-30T10:27:11.838Z,3
2023-04-30T10:28:18.661Z,3
2023-04-30T10:29:25.516Z,3
2023-04-30T10:30:32.313Z,3
2023-04-30T10:31:39.264Z,3
2023-04-30T10:32:46.079Z,3
2023-04-30T10:33:58.468Z,3
2023-04-30T10:35:10.489Z,3
2023-04-30T10:36:22.505Z,3
2023-04-30T10:37:29.333Z,3
2023-04-30T10:38:41.405Z,3
2023-04-30T10:39:48.208Z,2
2023-04-30T10:40:55.039Z,3
2023-04-30T10:42:01.794Z,3
2023-04-30T10:43:08.652Z,3
2023-04-30T10:44:15.540Z,3
2023-04-30T10:45:24.980Z,3
2023-04-30T10:46:40.146Z,3
2023-04-30T10:47:46.676Z,3
2023-04-30T10:48:53.541Z,3
2023-04-30T10:50:00.283Z,2
2023-04-30T10:51:07.227Z,2
2023-04-30T10:52:14.108Z,2
2023-04-30T10:53:20.863Z,3
2023-04-30T10:54:27.791Z,2
2023-04-30T10:55:34.624Z,3
2023-04-30T10:56:41.446Z,3
2023-04-30T10:57:48.311Z,3
2023-04-30T10:58:55.058Z,3
2023-04-30T11:00:01.931Z,3
2023-04-30T11:01:11.614Z,3
2023-04-30T11:02:18.372Z,3
2023-04-30T11:03:25.246Z,2
2023-04-30T11:04:32.146Z,2
2023-04-30T11:05:38.892Z,2
2023-04-30T11:06:45.939Z,2
2023-04-30T11:07:52.722Z,2
2023-04-30T11:08:59.720Z,2
2023-04-30T11:10:06.613Z,3
2023-04-30T11:11:13.365Z,2
2023-04-30T11:12:23.143Z,2
2023-04-30T11:13:32.898Z,2
2023-04-30T11:14:47.627Z,3
2023-04-30T11:15:54.457Z,2
2023-04-30T11:17:01.231Z,2
2023-04-30T11:18:08.111Z,3
2023-04-30T11:19:14.779Z,3
2023-04-30T11:20:21.642Z,2
2023-04-30T11:21:28.338Z,2
2023-04-30T11:22:35.246Z,2
2023-04-30T11:23:42.437Z,2
2023-04-30T11:24:49.149Z,2
2023-04-30T11:26:06.309Z,2
2023-04-30T11:27:13.065Z,2
2023-04-30T11:28:25.113Z,2
2023-04-30T11:29:32.020Z,2
2023-04-30T11:30:38.853Z,2
2023-04-30T11:31:45.741Z,2
2023-04-30T11:32:52.708Z,2
2023-04-30T11:33:59.488Z,3
2023-04-30T11:35:06.270Z,3
2023-04-30T11:36:13.389Z,2
2023-04-30T11:37:19.920Z,2
2023-04-30T11:38:37.091Z,2
2023-04-30T11:39:43.928Z,2
2023-04-30T11:40:51.133Z,2
2023-04-30T11:41:57.958Z,2
2023-04-30T11:43:04.751Z,2
2023-04-30T11:44:11.512Z,2
2023-04-30T11:45:26.457Z,2
2023-04-30T11:46:33.281Z,2
2023-04-30T11:47:40.171Z,2
2023-04-30T11:48:52.038Z,2
2023-04-30T11:49:58.836Z,2
2023-04-30T11:51:05.631Z,2
2023-04-30T11:52:20.610Z,2
2023-04-30T11:53:27.374Z,2
2023-04-30T11:54:34.139Z,2
2023-04-30T11:55:41.025Z,2
2023-04-30T11:56:47.841Z,2
2023-04-30T11:57:54.556Z,2
2023-04-30T11:59:01.392Z,2
2023-04-30T12:00:13.375Z,2
2023-04-30T12:01:20.334Z,2
2023-04-30T12:02:27.156Z,2
2023-04-30T12:03:33.949Z,2
2023-04-30T12:04:47.171Z,2
2023-04-30T12:05:53.970Z,2
2023-04-30T12:07:00.858Z,2
2023-04-30T12:08:07.656Z,2
2023-04-30T12:09:14.387Z,2
2023-04-30T12:10:21.158Z,2
2023-04-30T12:11:30.858Z,2
2023-04-30T12:12:37.642Z,2
2023-04-30T12:13:44.421Z,2
2023-04-30T12:14:59.313Z,2
2023-04-30T12:16:06.091Z,2
2023-04-30T12:17:13.016Z,2
2023-04-30T12:18:19.867Z,2
2023-04-30T12:19:26.672Z,2
2023-04-30T12:20:33.425Z,2
2023-04-30T12:21:40.276Z,2
2023-04-30T12:22:49.796Z,2
2023-04-30T12:23:56.554Z,2
2023-04-30T12:25:03.334Z,2
2023-04-30T12:26:15.620Z,2
2023-04-30T12:27:22.356Z,2
2023-04-30T12:28:29.186Z,2
2023-04-30T12:29:35.980Z,2
2023-04-30T12:30:42.785Z,2
2023-04-30T12:31:49.809Z,2
2023-04-30T12:32:56.652Z,2
2023-04-30T12:34:03.471Z,2
2023-04-30T12:35:10.254Z,2
2023-04-30T12:36:22.136Z,2
2023-04-30T12:37:34.055Z,2
2023-04-30T12:38:40.843Z,2
2023-04-30T12:39:47.725Z,2
2023-04-30T12:40:54.423Z,2
2023-04-30T12:42:01.234Z,2
2023-04-30T12:43:08.040Z,2
2023-04-30T12:44:14.834Z,2
2023-04-30T12:45:21.702Z,2
2023-04-30T12:46:38.929Z,2
2023-04-30T12:47:45.640Z,2
2023-04-30T12:48:52.430Z,2
2023-04-30T12:49:59.179Z,2
2023-04-30T12:51:05.983Z,2
2023-04-30T12:52:12.906Z,2
2023-04-30T12:53:19.632Z,2
2023-04-30T12:54:26.446Z,2
2023-04-30T12:55:33.243Z,2
2023-04-30T12:56:39.979Z,2
2023-04-30T12:57:57.043Z,2
2023-04-30T12:59:12.147Z,4
2023-04-30T13:00:19.193Z,3
2023-04-30T13:01:26.041Z,2
2023-04-30T13:02:32.906Z,3
2023-04-30T13:03:39.766Z,3
2023-04-30T13:04:46.374Z,4
2023-04-30T13:05:53.226Z,2
2023-04-30T13:06:59.959Z,6
2023-04-30T13:08:06.742Z,9
2023-04-30T13:09:13.563Z,8
2023-04-30T13:10:20.333Z,4
2023-04-30T13:11:27.928Z,2
2023-04-30T13:12:34.133Z,2
2023-04-30T13:13:40.913Z,2
2023-04-30T13:14:47.677Z,3
2023-04-30T13:15:54.504Z,2
2023-04-30T13:17:01.371Z,2
2023-04-30T13:18:08.230Z,2
2023-04-30T13:19:14.913Z,2
2023-04-30T13:20:21.728Z,6
2023-04-30T13:21:28.468Z,2
2023-04-30T13:22:35.250Z,2
2023-04-30T13:23:51.682Z,2
2023-04-30T13:24:48.760Z,2
2023-04-30T13:25:55.589Z,1
2023-04-30T13:27:02.418Z,2
2023-04-30T13:28:09.267Z,2
2023-04-30T13:29:16.085Z,1
2023-04-30T13:30:25.899Z,2
2023-04-30T13:31:32.739Z,2
2023-04-30T13:32:39.576Z,2
2023-04-30T13:33:46.334Z,2
2023-04-30T13:34:53.287Z,2
2023-04-30T13:36:01.403Z,2
2023-04-30T13:37:09.375Z,2
2023-04-30T13:38:16.124Z,24
2023-04-30T13:39:22.922Z,43
2023-04-30T13:40:29.681Z,24
2023-04-30T13:41:36.477Z,8
2023-04-30T13:42:43.485Z,2
2023-04-30T13:43:49.997Z,12
2023-04-30T13:44:56.741Z,20
2023-04-30T13:46:03.552Z,34
2023-04-30T13:47:10.497Z,24
2023-04-30T13:48:17.185Z,4
2023-04-30T13:49:24.130Z,4
2023-04-30T13:50:30.914Z,3
2023-04-30T13:51:37.758Z,3
2023-04-30T13:52:44.595Z,3
2023-04-30T13:53:51.455Z,3
2023-04-30T13:54:58.311Z,2
2023-04-30T13:56:05.062Z,2
2023-04-30T13:57:11.857Z,2
2023-04-30T13:58:18.724Z,3
2023-04-30T13:59:25.481Z,3
2023-04-30T14:00:32.432Z,30
2023-04-30T14:01:39.202Z,22
2023-04-30T14:02:46.149Z,37
2023-04-30T14:03:53.053Z,16
2023-04-30T14:05:05.597Z,3
2023-04-30T14:06:06.556Z,10
2023-04-30T14:07:13.323Z,7
2023-04-30T14:08:21.862Z,4
2023-04-30T14:09:26.900Z,3
2023-04-30T14:10:33.842Z,2
2023-04-30T14:11:40.634Z,3
2023-04-30T14:12:47.405Z,11
2023-04-30T14:13:54.220Z,4
2023-04-30T14:15:01.011Z,5
2023-04-30T14:16:08.173Z,7
2023-04-30T14:17:14.889Z,3
2023-04-30T14:18:21.684Z,5
2023-04-30T14:19:28.456Z,3
2023-04-30T14:20:35.587Z,3
2023-04-30T14:21:42.478Z,2
2023-04-30T14:22:49.212Z,2
2023-04-30T14:23:56.022Z,2
2023-04-30T14:25:02.788Z,2
2023-04-30T14:26:09.875Z,2
2023-04-30T14:27:16.761Z,2
2023-04-30T14:28:23.595Z,2
2023-04-30T14:29:30.403Z,2
2023-04-30T14:30:37.161Z,2
2023-04-30T14:31:43.965Z,2
2023-04-30T14:32:50.853Z,2
2023-04-30T14:33:57.613Z,2
2023-04-30T14:35:04.355Z,6
2023-04-30T14:36:11.296Z,15
2023-04-30T14:37:18.107Z,21
2023-04-30T14:38:25.087Z,28
2023-04-30T14:39:31.838Z,24
2023-04-30T14:40:38.649Z,39
2023-04-30T14:41:45.441Z,13
2023-04-30T14:42:52.232Z,6
2023-04-30T14:43:59.181Z,28
2023-04-30T14:45:06.056Z,22
2023-04-30T14:46:13.245Z,27
2023-04-30T14:47:20.063Z,2
2023-04-30T14:48:26.741Z,3
2023-04-30T14:49:33.590Z,2
2023-04-30T14:50:40.346Z,2
2023-04-30T14:51:47.164Z,2
2023-04-30T14:52:53.926Z,7
2023-04-30T14:54:00.757Z,9
2023-04-30T14:55:07.518Z,7
2023-04-30T14:56:14.351Z,4
2023-04-30T14:57:21.090Z,2
2023-04-30T14:58:27.932Z,2
2023-04-30T14:59:34.710Z,3
2023-04-30T15:00:41.763Z,3
2023-04-30T15:01:48.613Z,3
2023-04-30T15:02:55.375Z,2
2023-04-30T15:04:02.096Z,2
2023-04-30T15:05:08.917Z,2
2023-04-30T15:06:15.766Z,2
2023-04-30T15:07:22.477Z,2
2023-04-30T15:08:29.231Z,2
2023-04-30T15:09:35.974Z,2
2023-04-30T15:10:42.714Z,2
2023-04-30T15:11:49.691Z,2
2023-04-30T15:12:59.452Z,2
2023-04-30T15:14:06.283Z,2
2023-04-30T15:15:13.136Z,2
2023-04-30T15:16:20.044Z,2
2023-04-30T15:17:26.696Z,3
2023-04-30T15:18:33.363Z,4
2023-04-30T15:19:40.351Z,4
2023-04-30T15:20:47.098Z,2
2023-04-30T15:21:53.871Z,2
2023-04-30T15:23:00.601Z,2
2023-04-30T15:24:07.383Z,1
2023-04-30T15:25:14.321Z,3
2023-04-30T15:26:21.102Z,4
2023-04-30T15:27:27.869Z,4
2023-04-30T15:28:34.644Z,2
2023-04-30T15:29:41.363Z,2
2023-04-30T15:30:48.187Z,3
2023-04-30T15:31:55.110Z,2
2023-04-30T15:33:01.914Z,2
2023-04-30T15:34:08.672Z,2
2023-04-30T15:35:15.479Z,1
2023-04-30T15:36:22.219Z,3
2023-04-30T15:37:29.003Z,4
2023-04-30T15:38:35.893Z,2
2023-04-30T15:39:42.608Z,2
2023-04-30T15:40:49.350Z,2
2023-04-30T15:41:56.194Z,2
2023-04-30T15:43:03.029Z,2
2023-04-30T15:44:09.773Z,2
2023-04-30T15:45:16.543Z,2
2023-04-30T15:46:23.349Z,2
2023-04-30T15:47:30.189Z,2
2023-04-30T15:48:36.919Z,2
2023-04-30T15:49:43.795Z,2
2023-04-30T15:50:50.523Z,2
2023-04-30T15:51:57.338Z,7
2023-04-30T15:53:04.240Z,3
2023-04-30T15:54:11.059Z,2
2023-04-30T15:55:17.890Z,3
2023-04-30T15:56:24.695Z,2
2023-04-30T15:57:31.459Z,2
2023-04-30T15:58:38.366Z,3
2023-04-30T15:59:45.141Z,5
2023-04-30T16:00:51.954Z,3
2023-04-30T16:01:58.848Z,2
2023-04-30T16:03:05.665Z,3
2023-04-30T16:04:12.435Z,3
2023-04-30T16:05:19.240Z,9
2023-04-30T16:06:26.124Z,6
2023-04-30T16:07:32.866Z,4
2023-04-30T16:08:39.628Z,3
2023-04-30T16:09:46.554Z,4
2023-04-30T16:10:53.308Z,6
2023-04-30T16:12:00.187Z,3
2023-04-30T16:13:06.996Z,3
2023-04-30T16:14:13.812Z,2
2023-04-30T16:15:20.693Z,3
2023-04-30T16:16:28.034Z,3
2023-04-30T16:17:34.361Z,5
2023-04-30T16:18:41.100Z,4
2023-04-30T16:19:47.853Z,3
2023-04-30T16:20:54.676Z,3
2023-04-30T16:22:01.574Z,3
2023-04-30T16:23:08.426Z,4
2023-04-30T16:24:15.207Z,3
2023-04-30T16:25:22.212Z,2
2023-04-30T16:26:28.886Z,2
2023-04-30T16:27:37.291Z,2
2023-04-30T16:28:42.418Z,2
2023-04-30T16:29:49.185Z,2
2023-04-30T16:30:56.031Z,4
2023-04-30T16:32:02.817Z,9